Date,TemperatureHighF,TemperatureAvgF,TemperatureLowF,DewpointHighF,DewpointAvgF,DewpointLowF,HumidityHigh,HumidityAvg,HumidityLow,PressureMaxIn,PressureMinIn,WindSpeedMaxMPH,WindSpeedAvgMPH,GustSpeedMaxMPH,PrecipitationSumIn
2013-8-1,86.0,75.2,64.5,71.0,67.1,63.0,100,78,53,30.13,29.99,6,1,7,0.00
2013-8-2,83.6,74.9,66.8,76.0,71.3,66.0,100,89,75,30.03,29.87,7,1,9,0.32
2013-8-3,81.4,75.7,71.1,74.0,71.8,70.0,99,88,72,30.14,29.93,7,2,12,0.04
2013-8-4,74.9,70.2,66.9,72.0,67.6,63.0,100,92,79,30.16,30.03,8,1,10,0.31
2013-8-5,83.5,74.7,69.2,76.0,72.5,69.0,100,94,76,30.07,29.84,6,1,6,0.00
2013-8-6,85.8,77.3,69.8,77.0,74.0,70.0,100,90,73,29.90,29.81,13,1,19,0.15
2013-8-7,83.6,76.2,70.5,77.0,73.1,68.0,100,91,76,29.97,29.80,20,1,28,0.74
2013-8-8,73.3,69.9,67.4,69.0,66.9,65.0,94,90,84,30.02,29.89,9,1,14,0.01
2013-8-9,72.4,69.2,65.5,71.0,67.6,65.0,98,95,91,30.13,30.00,3,0,4,0.04
2013-8-10,81.7,71.4,62.9,69.0,64.5,60.0,100,81,52,30.21,30.11,9,1,11,0.01
2013-8-11,83.3,72.6,60.3,70.0,65.4,59.0,98,80,60,30.17,30.04,5,1,7,0.00
2013-8-12,81.8,73.4,66.9,71.0,69.2,67.0,100,88,67,30.08,29.99,7,1,10,0.79
2013-8-13,77.7,71.0,65.0,69.0,63.9,59.0,99,80,55,30.15,30.05,7,1,10,0.00
2013-8-14,76.0,67.6,61.1,63.0,59.5,56.0,95,77,53,30.23,30.13,7,1,9,0.00
2013-8-15,73.1,66.1,61.0,64.0,58.6,55.0,87,77,63,30.17,30.03,6,1,11,0.00
2013-8-16,65.1,64.1,64.0,58.0,58.0,58.0,82,82,81,30.13,30.11,3,1,4,0.00
2013-8-28,80.0,78.6,77.5,72.0,71.2,71.0,81,78,74,29.93,29.92,2,0,2,0.00
2013-8-29,93.3,82.9,72.6,75.0,71.4,68.0,94,71,46,29.93,29.84,7,1,11,0.00
2013-8-30,97.3,85.5,74.9,73.0,70.3,65.0,87,64,36,29.86,29.72,10,2,14,0.00
2013-8-31,88.3,81.6,75.0,77.0,72.6,69.0,90,75,55,29.75,29.68,10,1,13,0.00